createdAt,value
2019-02-24T00:00:48.912Z,0.03
2019-02-24T00:01:49.115Z,0.00
2019-02-24T00:02:48.954Z,0.00
2019-02-24T00:03:48.952Z,0.00
2019-02-24T00:04:48.930Z,0.00
2019-02-24T00:05:48.950Z,0.00
2019-02-24T00:06:48.972Z,0.00
2019-02-24T00:07:48.974Z,0.00
2019-02-24T00:08:49.003Z,0.00
2019-02-24T00:09:48.975Z,0.00
2019-02-24T00:10:48.993Z,0.00
2019-02-24T00:11:49.006Z,0.00
2019-02-24T00:12:49.028Z,0.00
2019-02-24T00:13:49.006Z,0.00
2019-02-24T00:14:49.042Z,0.00
2019-02-24T00:15:49.034Z,0.00
2019-02-24T00:16:49.025Z,0.00
2019-02-24T00:17:49.049Z,0.00
2019-02-24T00:18:49.051Z,0.00
2019-02-24T00:19:49.046Z,0.00
2019-02-24T00:20:49.058Z,0.00
2019-02-24T00:21:49.095Z,0.00
2019-02-24T00:22:49.081Z,0.00
2019-02-24T00:23:49.079Z,0.00
2019-02-24T00:24:49.074Z,0.00
2019-02-24T00:25:49.085Z,0.00
2019-02-24T00:26:49.109Z,0.18
2019-02-24T00:27:48.900Z,0.26
2019-02-24T00:28:48.913Z,0.16
2019-02-24T00:29:49.155Z,0.05
2019-02-24T00:30:48.975Z,0.00
2019-02-24T00:31:48.928Z,0.00
2019-02-24T00:32:48.949Z,0.13
2019-02-24T00:33:48.966Z,0.45
2019-02-24T00:34:48.957Z,0.37
2019-02-24T00:35:48.960Z,0.24
2019-02-24T00:36:49.014Z,0.01
2019-02-24T00:37:48.999Z,0.00
2019-02-24T00:38:48.988Z,0.00
2019-02-24T00:39:49.006Z,0.00
2019-02-24T00:40:48.973Z,0.00
2019-02-24T00:41:49.408Z,0.00
2019-02-24T00:42:48.996Z,0.00
2019-02-24T00:43:49.010Z,0.00
2019-02-24T00:44:49.051Z,0.00
2019-02-24T00:45:49.091Z,0.23
2019-02-24T00:46:49.033Z,0.44
2019-02-24T00:47:49.048Z,0.04
2019-02-24T00:48:49.105Z,0.00
2019-02-24T00:49:49.079Z,0.00
2019-02-24T00:50:49.072Z,0.00
2019-02-24T00:51:49.101Z,0.00
2019-02-24T00:52:49.074Z,0.00
2019-02-24T00:53:49.119Z,0.00
2019-02-24T00:54:49.104Z,0.25
2019-02-24T00:55:49.173Z,0.00
2019-02-24T00:56:49.159Z,0.00
2019-02-24T00:57:48.950Z,0.00
2019-02-24T00:58:48.917Z,0.00
2019-02-24T00:59:48.909Z,0.00
2019-02-24T01:00:48.920Z,0.00
2019-02-24T01:01:49.146Z,0.00
2019-02-24T01:02:48.963Z,0.00
2019-02-24T01:03:48.946Z,0.00
2019-02-24T01:04:48.967Z,0.00
2019-02-24T01:05:48.995Z,0.00
2019-02-24T01:06:48.993Z,0.00
2019-02-24T01:07:49.012Z,0.00
2019-02-24T01:08:49.021Z,0.00
2019-02-24T01:09:49.039Z,0.00
2019-02-24T01:10:49.003Z,0.00
2019-02-24T01:11:49.008Z,0.00
2019-02-24T01:12:49.056Z,0.00
2019-02-24T01:13:49.053Z,0.00
2019-02-24T01:14:49.064Z,0.01
2019-02-24T01:15:49.071Z,0.00
2019-02-24T01:16:49.068Z,0.00
2019-02-24T01:17:49.049Z,0.06
2019-02-24T01:18:49.098Z,0.03
2019-02-24T01:19:49.116Z,0.00
2019-02-24T01:20:49.096Z,0.00
2019-02-24T01:21:49.091Z,0.00
2019-02-24T01:22:49.098Z,0.00
2019-02-24T01:23:49.110Z,0.00
2019-02-24T01:24:49.110Z,0.08
2019-02-24T01:25:49.111Z,0.48
2019-02-24T01:26:49.144Z,0.06
2019-02-24T01:27:48.941Z,0.51
2019-02-24T01:28:48.979Z,0.35
2019-02-24T01:29:48.934Z,0.00
2019-02-24T01:30:48.989Z,0.00
2019-02-24T01:31:48.975Z,0.62
2019-02-24T01:32:49.040Z,0.67
2019-02-24T01:33:49.004Z,0.00
2019-02-24T01:34:48.977Z,0.00
2019-02-24T01:35:48.993Z,0.01
2019-02-24T01:36:48.998Z,0.33
2019-02-24T01:37:48.998Z,0.06
2019-02-24T01:38:49.011Z,0.00
2019-02-24T01:39:49.046Z,0.00
2019-02-24T01:40:49.227Z,0.00
2019-02-24T01:41:49.040Z,0.00
2019-02-24T01:42:49.052Z,0.00
2019-02-24T01:43:49.075Z,0.00
2019-02-24T01:44:49.070Z,0.00
2019-02-24T01:45:49.065Z,0.00
2019-02-24T01:46:49.080Z,0.00
2019-02-24T01:47:49.094Z,0.00
2019-02-24T01:48:49.090Z,0.00
2019-02-24T01:49:49.091Z,0.00
2019-02-24T01:50:49.100Z,0.00
2019-02-24T01:51:49.107Z,0.00
2019-02-24T01:52:49.149Z,0.00
2019-02-24T01:53:49.115Z,0.00
2019-02-24T01:54:49.122Z,0.00
2019-02-24T01:55:49.134Z,0.00
2019-02-24T01:56:49.154Z,0.00
2019-02-24T01:57:48.959Z,0.00
2019-02-24T01:58:48.939Z,0.00
2019-02-24T01:59:48.986Z,0.00
2019-02-24T02:00:48.955Z,0.00
2019-02-24T02:01:48.964Z,0.00
2019-02-24T02:02:49.007Z,0.00
2019-02-24T02:03:49.012Z,0.00
2019-02-24T02:04:49.015Z,0.00
2019-02-24T02:05:49.000Z,0.00
2019-02-24T02:06:49.004Z,0.00
2019-02-24T02:07:49.010Z,0.00
2019-02-24T02:08:49.053Z,0.00
2019-02-24T02:09:49.045Z,0.00
2019-02-24T02:10:49.060Z,0.00
2019-02-24T02:11:49.052Z,0.00
2019-02-24T02:12:49.051Z,0.00
2019-02-24T02:13:49.069Z,0.00
2019-02-24T02:14:49.110Z,0.00
2019-02-24T02:15:49.097Z,0.00
2019-02-24T02:16:49.069Z,0.04
2019-02-24T02:17:49.097Z,0.00
2019-02-24T02:18:49.350Z,0.00
2019-02-24T02:19:49.109Z,0.00
2019-02-24T02:20:49.103Z,0.22
2019-02-24T02:21:49.120Z,0.01
2019-02-24T02:22:49.121Z,0.19
2019-02-24T02:23:49.143Z,0.18
2019-02-24T02:24:49.145Z,0.64
2019-02-24T02:25:49.158Z,0.33
2019-02-24T02:26:49.189Z,0.11
2019-02-24T02:27:48.986Z,0.00
2019-02-24T02:28:48.960Z,0.20
2019-02-24T02:29:48.981Z,0.23
2019-02-24T02:30:48.968Z,0.04
2019-02-24T02:31:49.012Z,0.02
2019-02-24T02:32:49.417Z,0.00
2019-02-24T02:33:49.004Z,0.00
2019-02-24T02:34:49.239Z,0.00
2019-02-24T02:35:49.041Z,0.00
2019-02-24T02:36:49.037Z,0.00
2019-02-24T02:37:49.233Z,0.00
2019-02-24T02:38:49.251Z,0.00
2019-02-24T02:39:49.262Z,0.00
2019-02-24T02:40:49.277Z,0.00
2019-02-24T02:41:49.286Z,0.00
2019-02-24T02:42:49.312Z,0.00
2019-02-24T02:43:49.488Z,0.00
2019-02-24T02:44:49.287Z,0.00
2019-02-24T02:45:49.294Z,0.00
2019-02-24T02:46:49.284Z,0.00
2019-02-24T02:47:49.302Z,0.00
2019-02-24T02:48:49.328Z,0.00
2019-02-24T02:49:49.332Z,0.00
2019-02-24T02:50:49.377Z,0.00
2019-02-24T02:51:49.371Z,0.00
2019-02-24T02:52:49.345Z,0.00
2019-02-24T02:53:49.344Z,0.00
2019-02-24T02:54:49.355Z,0.00
2019-02-24T02:55:49.365Z,0.00
2019-02-24T02:56:49.433Z,0.00
2019-02-24T02:57:49.420Z,0.00
2019-02-24T02:58:54.318Z,0.00
2019-02-24T02:59:49.389Z,0.00
2019-02-24T03:00:49.424Z,0.00
2019-02-24T03:01:49.435Z,0.00
2019-02-24T03:02:49.448Z,0.00
2019-02-24T03:03:49.471Z,0.00
2019-02-24T03:04:49.451Z,0.00
2019-02-24T03:05:49.446Z,0.00
2019-02-24T03:06:49.444Z,0.00
2019-02-24T03:07:49.451Z,0.00
2019-02-24T03:08:49.485Z,0.00
2019-02-24T03:09:49.485Z,0.00
2019-02-24T03:10:49.503Z,0.00
2019-02-24T03:11:49.287Z,0.00
2019-02-24T03:12:49.298Z,0.00
2019-02-24T03:13:49.301Z,0.00
2019-02-24T03:14:49.322Z,0.00
2019-02-24T03:15:49.343Z,0.00
2019-02-24T03:16:49.332Z,0.00
2019-02-24T03:17:49.319Z,0.00
2019-02-24T03:18:49.355Z,0.00
2019-02-24T03:19:49.357Z,0.00
2019-02-24T03:20:49.357Z,0.00
2019-02-24T03:21:49.345Z,0.00
2019-02-24T03:22:49.368Z,0.00
2019-02-24T03:23:49.358Z,0.00
2019-02-24T03:24:49.372Z,0.00
2019-02-24T03:25:49.384Z,0.00
2019-02-24T03:26:49.410Z,0.00
2019-02-24T03:27:49.424Z,0.00
2019-02-24T03:28:49.408Z,0.00
2019-02-24T03:29:49.406Z,0.00
2019-02-24T03:30:49.462Z,0.00
2019-02-24T03:31:49.475Z,0.00
2019-02-24T03:32:49.434Z,0.00
2019-02-24T03:33:49.503Z,0.00
2019-02-24T03:34:49.462Z,0.00
2019-02-24T03:35:49.673Z,0.00
2019-02-24T03:36:49.447Z,0.00
2019-02-24T03:37:49.501Z,0.00
2019-02-24T03:38:49.492Z,0.00
2019-02-24T03:39:49.485Z,0.00
2019-02-24T03:40:49.509Z,0.00
2019-02-24T03:41:49.323Z,0.00
2019-02-24T03:42:49.323Z,0.00
2019-02-24T03:43:49.296Z,0.00
2019-02-24T03:44:49.334Z,0.00
2019-02-24T03:45:49.337Z,0.00
2019-02-24T03:46:49.344Z,0.00
2019-02-24T03:47:49.331Z,0.04
2019-02-24T03:48:49.360Z,0.00
2019-02-24T03:49:49.354Z,0.00
2019-02-24T03:50:49.422Z,0.19
2019-02-24T03:51:49.372Z,0.00
2019-02-24T03:52:49.404Z,0.00
2019-02-24T03:53:49.378Z,0.00
2019-02-24T03:54:49.386Z,0.00
2019-02-24T03:55:49.389Z,0.00
2019-02-24T03:56:49.406Z,0.00
2019-02-24T03:57:49.449Z,0.00
2019-02-24T03:58:49.438Z,0.00
2019-02-24T03:59:49.416Z,0.00
2019-02-24T04:00:49.429Z,0.00
2019-02-24T04:01:49.457Z,0.03
2019-02-24T04:02:49.449Z,0.06
2019-02-24T04:03:49.683Z,0.00
2019-02-24T04:04:49.482Z,0.00
2019-02-24T04:05:49.481Z,0.00
2019-02-24T04:06:49.481Z,0.00
2019-02-24T04:07:49.472Z,0.00
2019-02-24T04:08:49.517Z,0.00
2019-02-24T04:09:49.514Z,0.00
2019-02-24T04:10:49.521Z,0.00
2019-02-24T04:11:49.295Z,0.16
2019-02-24T04:12:49.322Z,0.52
2019-02-24T04:13:49.357Z,0.75
2019-02-24T04:14:49.344Z,0.82
2019-02-24T04:15:49.380Z,0.84
2019-02-24T04:16:49.339Z,1.02
2019-02-24T04:17:49.369Z,0.68
2019-02-24T04:18:49.347Z,0.91
2019-02-24T04:19:49.374Z,1.35
2019-02-24T04:20:49.401Z,1.28
2019-02-24T04:21:49.382Z,1.32
2019-02-24T04:22:49.383Z,1.07
2019-02-24T04:23:49.385Z,0.79
2019-02-24T04:24:49.453Z,0.48
2019-02-24T04:25:49.397Z,0.92
2019-02-24T04:26:49.420Z,0.21
2019-02-24T04:27:49.463Z,0.58
2019-02-24T04:28:49.432Z,0.65
2019-02-24T04:29:49.443Z,0.98
2019-02-24T04:30:49.446Z,1.32
2019-02-24T04:31:49.449Z,1.06
2019-02-24T04:32:49.465Z,0.57
2019-02-24T04:33:49.487Z,0.62
2019-02-24T04:34:49.500Z,1.05
2019-02-24T04:35:49.461Z,0.83
2019-02-24T04:36:49.469Z,0.26
2019-02-24T04:37:49.513Z,1.12
2019-02-24T04:38:49.518Z,0.87
2019-02-24T04:39:49.515Z,1.04
2019-02-24T04:40:49.714Z,0.83
2019-02-24T04:41:49.568Z,0.72
2019-02-24T04:42:49.331Z,0.18
2019-02-24T04:43:49.331Z,0.00
2019-02-24T04:44:49.365Z,0.03
2019-02-24T04:45:49.391Z,0.00
2019-02-24T04:46:49.383Z,0.02
2019-02-24T04:47:49.362Z,0.24
2019-02-24T04:48:49.357Z,0.11
2019-02-24T04:49:49.396Z,0.15
2019-02-24T04:50:49.383Z,0.71
2019-02-24T04:51:49.426Z,0.56
2019-02-24T04:52:49.410Z,0.46
2019-02-24T04:53:49.420Z,0.39
2019-02-24T04:54:49.403Z,0.32
2019-02-24T04:55:49.429Z,0.00
2019-02-24T04:56:49.449Z,0.37
2019-02-24T04:57:49.491Z,0.05
2019-02-24T04:58:49.433Z,0.01
2019-02-24T04:59:49.444Z,0.00
2019-02-24T05:00:49.480Z,0.00
2019-02-24T05:01:49.472Z,0.00
2019-02-24T05:02:49.479Z,0.63
2019-02-24T05:03:49.499Z,0.14
2019-02-24T05:04:49.542Z,0.03
2019-02-24T05:05:49.496Z,0.00
2019-02-24T05:06:49.526Z,0.00
2019-02-24T05:07:49.532Z,0.01
2019-02-24T05:08:49.516Z,0.28
2019-02-24T05:09:49.531Z,0.12
2019-02-24T05:10:49.555Z,0.00
2019-02-24T05:11:49.351Z,0.00
2019-02-24T05:12:49.342Z,0.10
2019-02-24T05:13:49.372Z,0.01
2019-02-24T05:14:49.385Z,0.00
2019-02-24T05:15:49.402Z,0.15
2019-02-24T05:16:49.363Z,0.34
2019-02-24T05:17:49.396Z,0.45
2019-02-24T05:18:49.389Z,0.55
2019-02-24T05:19:49.404Z,0.58
2019-02-24T05:20:49.436Z,0.02
2019-02-24T05:21:49.424Z,0.00
2019-02-24T05:22:49.413Z,0.00
2019-02-24T05:23:49.414Z,0.08
2019-02-24T05:24:49.429Z,0.00
2019-02-24T05:25:49.457Z,0.00
2019-02-24T05:26:49.459Z,0.00
2019-02-24T05:27:49.494Z,0.21
2019-02-24T05:28:49.471Z,0.00
2019-02-24T05:29:49.495Z,0.28
2019-02-24T05:30:49.478Z,0.38
2019-02-24T05:31:49.507Z,0.01
2019-02-24T05:32:49.485Z,0.00
2019-02-24T05:33:49.499Z,0.00
2019-02-24T05:34:49.496Z,0.00
2019-02-24T05:35:49.509Z,0.00
2019-02-24T05:36:49.537Z,0.00
2019-02-24T05:37:49.564Z,0.00
2019-02-24T05:38:49.778Z,0.00
2019-02-24T05:39:49.534Z,0.00
2019-02-24T05:40:49.540Z,0.00
2019-02-24T05:41:49.545Z,0.00
2019-02-24T05:42:49.749Z,0.00
2019-02-24T05:43:49.576Z,0.00
2019-02-24T05:44:49.610Z,0.00
2019-02-24T05:45:49.571Z,0.00
2019-02-24T05:46:49.598Z,0.00
2019-02-24T05:47:49.632Z,0.00
2019-02-24T05:48:49.601Z,0.00
2019-02-24T05:49:49.652Z,0.00
2019-02-24T05:50:49.643Z,0.00
2019-02-24T05:51:49.630Z,0.00
2019-02-24T05:52:49.627Z,0.00
2019-02-24T05:53:49.644Z,0.00
2019-02-24T05:54:51.732Z,0.00
2019-02-24T05:55:49.654Z,0.00
2019-02-24T05:56:49.719Z,0.00
2019-02-24T05:57:49.663Z,0.00
2019-02-24T05:58:49.681Z,0.00
2019-02-24T05:59:55.232Z,0.00
2019-02-24T06:00:49.671Z,0.00
2019-02-24T06:01:49.728Z,0.09
2019-02-24T06:02:49.748Z,0.00
2019-02-24T06:03:49.706Z,0.03
2019-02-24T06:04:49.722Z,0.00
2019-02-24T06:05:49.741Z,0.00
2019-02-24T06:06:49.724Z,0.28
2019-02-24T06:07:49.774Z,0.35
2019-02-24T06:08:49.748Z,0.05
2019-02-24T06:09:49.779Z,0.00
2019-02-24T06:10:49.782Z,0.00
2019-02-24T06:11:49.974Z,0.00
2019-02-24T06:12:49.580Z,0.00
2019-02-24T06:13:49.594Z,0.00
2019-02-24T06:14:49.799Z,0.65
2019-02-24T06:15:49.602Z,1.65
2019-02-24T06:16:49.621Z,0.83
2019-02-24T06:17:49.628Z,0.40
2019-02-24T06:18:49.664Z,0.21
2019-02-24T06:19:49.643Z,0.09
2019-02-24T06:20:49.649Z,0.03
2019-02-24T06:21:49.652Z,0.10
2019-02-24T06:22:49.650Z,0.00
2019-02-24T06:23:49.654Z,0.37
2019-02-24T06:24:49.697Z,0.04
2019-02-24T06:25:49.880Z,0.00
2019-02-24T06:26:49.700Z,0.23
2019-02-24T06:27:49.680Z,0.25
2019-02-24T06:28:49.686Z,0.03
2019-02-24T06:29:49.711Z,0.00
2019-02-24T06:30:49.714Z,0.00
2019-02-24T06:31:49.771Z,0.00
2019-02-24T06:32:49.720Z,0.00
2019-02-24T06:33:49.744Z,0.00
2019-02-24T06:34:49.748Z,0.49
2019-02-24T06:35:49.744Z,0.24
2019-02-24T06:36:49.781Z,0.01
2019-02-24T06:37:49.764Z,0.35
2019-02-24T06:38:49.778Z,0.04
2019-02-24T06:39:49.792Z,0.76
2019-02-24T06:40:49.801Z,1.15
2019-02-24T06:41:49.587Z,1.15
2019-02-24T06:42:49.615Z,1.11
2019-02-24T06:43:49.613Z,0.85
2019-02-24T06:44:49.617Z,0.03
2019-02-24T06:45:49.659Z,0.94
2019-02-24T06:46:49.613Z,0.69
2019-02-24T06:47:49.622Z,0.29
2019-02-24T06:48:49.640Z,0.16
2019-02-24T06:49:49.638Z,0.58
2019-02-24T06:50:49.649Z,0.50
2019-02-24T06:51:49.671Z,0.90
2019-02-24T06:52:49.679Z,0.79
2019-02-24T06:53:49.656Z,0.33
2019-02-24T06:54:49.718Z,0.00
2019-02-24T06:55:49.697Z,0.01
2019-02-24T06:56:50.090Z,0.00
2019-02-24T06:57:49.702Z,0.00
2019-02-24T06:58:49.706Z,0.07
2019-02-24T06:59:49.728Z,0.09
2019-02-24T07:00:49.738Z,0.29
2019-02-24T07:01:49.731Z,0.40
2019-02-24T07:02:49.741Z,0.05
2019-02-24T07:03:49.955Z,0.00
2019-02-24T07:04:49.763Z,0.01
2019-02-24T07:05:49.755Z,0.00
2019-02-24T07:06:49.760Z,0.13
2019-02-24T07:07:49.777Z,0.01
2019-02-24T07:08:49.775Z,0.08
2019-02-24T07:09:49.786Z,0.01
2019-02-24T07:10:49.796Z,0.13
2019-02-24T07:11:49.670Z,0.00
2019-02-24T07:12:49.605Z,0.00
2019-02-24T07:13:49.611Z,0.28
2019-02-24T07:14:49.643Z,0.00
2019-02-24T07:15:49.640Z,0.06
2019-02-24T07:16:49.651Z,0.05
2019-02-24T07:17:49.687Z,0.00
2019-02-24T07:18:49.678Z,0.00
2019-02-24T07:19:49.644Z,0.00
2019-02-24T07:20:49.679Z,0.00
2019-02-24T07:21:49.673Z,0.00
2019-02-24T07:22:49.697Z,0.00
2019-02-24T07:23:49.680Z,0.19
2019-02-24T07:24:49.725Z,0.64
2019-02-24T07:25:49.740Z,0.76
2019-02-24T07:26:49.700Z,0.27
2019-02-24T07:27:49.724Z,0.00
2019-02-24T07:28:49.712Z,0.00
2019-02-24T07:29:49.753Z,0.42
2019-02-24T07:30:49.740Z,0.53
2019-02-24T07:31:49.739Z,0.42
2019-02-24T07:32:49.772Z,0.59
2019-02-24T07:33:49.748Z,0.92
2019-02-24T07:34:49.766Z,0.83
2019-02-24T07:35:49.799Z,0.65
2019-02-24T07:36:49.805Z,0.01
2019-02-24T07:37:49.765Z,0.00
2019-02-24T07:38:49.784Z,0.00
2019-02-24T07:39:49.820Z,0.02
2019-02-24T07:40:49.845Z,0.38
2019-02-24T07:41:50.030Z,0.11
2019-02-24T07:42:49.635Z,0.02
2019-02-24T07:43:49.621Z,0.39
2019-02-24T07:44:49.649Z,0.36
2019-02-24T07:45:49.649Z,0.18
2019-02-24T07:46:49.663Z,0.13
2019-02-24T07:47:49.649Z,0.00
2019-02-24T07:48:49.684Z,0.00
2019-02-24T07:49:49.670Z,0.33
2019-02-24T07:50:49.666Z,0.69
2019-02-24T07:51:49.712Z,0.43
2019-02-24T07:52:49.692Z,0.12
2019-02-24T07:53:49.674Z,0.07
2019-02-24T07:54:49.706Z,0.21
2019-02-24T07:55:49.727Z,0.09
2019-02-24T07:56:49.734Z,0.09
2019-02-24T07:57:49.751Z,0.27
2019-02-24T07:58:49.747Z,0.00
2019-02-24T07:59:49.765Z,0.00
2019-02-24T08:00:49.764Z,0.00
2019-02-24T08:01:49.768Z,0.00
2019-02-24T08:02:49.784Z,0.00
2019-02-24T08:03:49.774Z,0.15
2019-02-24T08:04:49.772Z,0.08
2019-02-24T08:05:49.774Z,0.16
2019-02-24T08:06:49.780Z,0.02
2019-02-24T08:07:49.815Z,0.00
2019-02-24T08:08:49.847Z,0.26
2019-02-24T08:09:49.826Z,0.60
2019-02-24T08:10:50.010Z,0.42
2019-02-24T08:11:49.651Z,0.23
2019-02-24T08:12:49.666Z,0.80
2019-02-24T08:13:49.630Z,0.13
2019-02-24T08:14:49.685Z,0.72
2019-02-24T08:15:49.654Z,0.83
2019-02-24T08:16:49.679Z,1.34
2019-02-24T08:17:49.915Z,0.29
2019-02-24T08:18:51.459Z,0.79
2019-02-24T08:19:49.693Z,0.18
2019-02-24T08:20:49.722Z,0.53
2019-02-24T08:21:49.722Z,0.51
2019-02-24T08:22:49.688Z,0.80
2019-02-24T08:23:49.730Z,0.50
2019-02-24T08:24:49.722Z,0.72
2019-02-24T08:25:49.784Z,1.01
2019-02-24T08:26:49.786Z,0.35
2019-02-24T08:27:49.746Z,0.42
2019-02-24T08:28:49.765Z,0.09
2019-02-24T08:29:49.757Z,0.50
2019-02-24T08:30:49.792Z,0.95
2019-02-24T08:31:49.793Z,0.06
2019-02-24T08:32:49.796Z,0.22
2019-02-24T08:33:49.787Z,0.30
2019-02-24T08:34:49.817Z,0.67
2019-02-24T08:35:49.774Z,0.44
2019-02-24T08:36:49.803Z,0.94
2019-02-24T08:37:49.827Z,0.81
2019-02-24T08:38:50.044Z,0.64
2019-02-24T08:39:49.854Z,0.65
2019-02-24T08:40:49.832Z,0.62
2019-02-24T08:41:49.632Z,0.76
2019-02-24T08:42:49.657Z,1.17
2019-02-24T08:43:49.656Z,1.11
2019-02-24T08:44:49.675Z,1.41
2019-02-24T08:45:49.866Z,0.84
2019-02-24T08:46:49.690Z,0.61
2019-02-24T08:47:49.698Z,1.10
2019-02-24T08:48:49.689Z,0.67
2019-02-24T08:49:49.731Z,0.21
2019-02-24T08:50:49.700Z,0.76
2019-02-24T08:51:49.717Z,1.42
2019-02-24T08:52:49.704Z,0.97
2019-02-24T08:53:49.725Z,0.65
2019-02-24T08:54:49.796Z,0.10
2019-02-24T08:55:49.986Z,0.70
2019-02-24T08:56:49.746Z,1.07
2019-02-24T08:57:49.760Z,2.03
2019-02-24T08:58:49.784Z,1.39
2019-02-24T08:59:49.809Z,1.41
2019-02-24T09:00:51.294Z,2.04
2019-02-24T09:01:49.782Z,1.00
2019-02-24T09:02:49.784Z,1.01
2019-02-24T09:03:49.798Z,1.75
2019-02-24T09:04:49.812Z,0.78
2019-02-24T09:05:50.264Z,2.08
2019-02-24T09:06:49.836Z,1.34
2019-02-24T09:07:49.832Z,1.27
2019-02-24T09:08:49.827Z,1.15
2019-02-24T09:09:49.830Z,0.61
2019-02-24T09:10:49.877Z,1.28
2019-02-24T09:11:49.880Z,1.86
2019-02-24T09:12:49.845Z,0.81
2019-02-24T09:13:49.861Z,1.56
2019-02-24T09:14:49.871Z,0.66
2019-02-24T09:15:49.922Z,0.24
2019-02-24T09:16:49.948Z,0.50
2019-02-24T09:17:49.914Z,0.62
2019-02-24T09:18:49.893Z,0.39
2019-02-24T09:19:49.924Z,1.08
2019-02-24T09:20:49.942Z,1.85
2019-02-24T09:21:49.936Z,1.80
2019-02-24T09:22:49.962Z,2.53
2019-02-24T09:23:49.965Z,1.59
2019-02-24T09:24:49.973Z,1.20
2019-02-24T09:25:49.965Z,2.87
2019-02-24T09:26:50.016Z,2.71
2019-02-24T09:27:49.998Z,2.01
2019-02-24T09:28:50.917Z,3.12
2019-02-24T09:29:49.962Z,3.55
2019-02-24T09:30:50.210Z,2.01
2019-02-24T09:31:50.001Z,1.68
2019-02-24T09:32:50.017Z,3.16
2019-02-24T09:33:50.238Z,3.57
2019-02-24T09:34:50.251Z,3.49
2019-02-24T09:35:51.665Z,0.51
2019-02-24T09:36:50.077Z,0.66
2019-02-24T09:37:50.060Z,1.15
2019-02-24T09:38:50.055Z,0.00
2019-02-24T09:39:50.040Z,0.06
2019-02-24T09:40:50.119Z,0.70
2019-02-24T09:41:50.108Z,0.44
2019-02-24T09:42:50.089Z,1.11
2019-02-24T09:43:50.116Z,0.98
2019-02-24T09:44:50.327Z,0.87
2019-02-24T09:45:50.101Z,1.91
2019-02-24T09:46:50.129Z,1.73
2019-02-24T09:47:50.109Z,2.40
2019-02-24T09:48:50.159Z,2.68
2019-02-24T09:49:50.152Z,1.39
2019-02-24T09:50:50.191Z,1.47
2019-02-24T09:51:52.266Z,1.44
2019-02-24T09:52:50.179Z,1.86
2019-02-24T09:53:50.163Z,0.79
2019-02-24T09:54:50.172Z,0.08
2019-02-24T09:55:50.181Z,0.36
2019-02-24T09:56:50.230Z,0.48
2019-02-24T09:57:50.208Z,0.13
2019-02-24T09:58:50.216Z,0.71
2019-02-24T09:59:50.215Z,1.11
2019-02-24T10:00:50.218Z,0.67
2019-02-24T10:01:50.240Z,1.83
2019-02-24T10:02:50.285Z,1.03
2019-02-24T10:03:50.224Z,0.23
2019-02-24T10:04:50.257Z,0.60
2019-02-24T10:05:50.238Z,0.46
2019-02-24T10:06:50.258Z,0.95
2019-02-24T10:07:50.058Z,1.09
2019-02-24T10:08:50.079Z,0.47
2019-02-24T10:09:50.091Z,1.20
2019-02-24T10:10:50.286Z,0.79
2019-02-24T10:11:50.098Z,1.19
2019-02-24T10:12:50.110Z,1.03
2019-02-24T10:13:51.226Z,0.24
2019-02-24T10:14:50.195Z,0.33
2019-02-24T10:15:50.127Z,0.49
2019-02-24T10:16:50.182Z,0.22
2019-02-24T10:17:50.151Z,0.68
2019-02-24T10:18:50.164Z,0.57
2019-02-24T10:19:50.181Z,0.00
2019-02-24T10:20:50.222Z,0.59
2019-02-24T10:21:50.147Z,0.37
2019-02-24T10:22:50.162Z,0.09
2019-02-24T10:23:50.187Z,0.47
2019-02-24T10:24:50.188Z,0.67
2019-02-24T10:25:50.239Z,1.53
2019-02-24T10:26:50.226Z,1.72
2019-02-24T10:27:50.205Z,1.25
2019-02-24T10:28:50.241Z,1.91
2019-02-24T10:29:50.238Z,1.81
2019-02-24T10:30:50.224Z,1.58
2019-02-24T10:31:50.271Z,1.91
2019-02-24T10:32:50.264Z,2.13
2019-02-24T10:33:50.258Z,1.25
2019-02-24T10:34:50.311Z,1.29
2019-02-24T10:35:50.270Z,0.83
2019-02-24T10:36:50.290Z,1.55
2019-02-24T10:37:50.106Z,1.22
2019-02-24T10:38:50.085Z,1.68
2019-02-24T10:39:50.112Z,0.94
2019-02-24T10:40:50.311Z,0.69
2019-02-24T10:41:50.099Z,3.64
2019-02-24T10:42:50.135Z,1.15
2019-02-24T10:43:50.154Z,0.70
2019-02-24T10:44:50.122Z,1.70
2019-02-24T10:45:50.156Z,2.69
2019-02-24T10:46:50.168Z,2.26
2019-02-24T10:47:50.157Z,3.12
2019-02-24T10:48:50.228Z,3.10
2019-02-24T10:49:50.187Z,2.54
2019-02-24T10:50:50.174Z,1.91
2019-02-24T10:51:50.165Z,1.94
2019-02-24T10:52:50.192Z,0.98
2019-02-24T10:53:50.217Z,1.17
2019-02-24T10:54:50.227Z,0.93
2019-02-24T10:55:50.263Z,3.79
2019-02-24T10:56:50.242Z,4.04
2019-02-24T10:57:50.430Z,2.65
2019-02-24T10:58:50.238Z,1.67
2019-02-24T10:59:50.249Z,3.91
2019-02-24T11:00:50.250Z,3.56
2019-02-24T11:01:50.272Z,1.61
2019-02-24T11:02:50.259Z,2.54
2019-02-24T11:03:50.266Z,2.24
2019-02-24T11:04:50.281Z,1.84
2019-02-24T11:05:50.299Z,1.34
2019-02-24T11:06:50.553Z,2.11
2019-02-24T11:07:50.313Z,1.32
2019-02-24T11:08:50.323Z,0.29
2019-02-24T11:09:50.315Z,0.53
2019-02-24T11:10:50.516Z,0.99
2019-02-24T11:11:50.343Z,0.83
2019-02-24T11:12:50.400Z,0.12
2019-02-24T11:13:50.365Z,1.59
2019-02-24T11:14:50.337Z,0.21
2019-02-24T11:15:50.375Z,0.18
2019-02-24T11:16:50.350Z,0.68
2019-02-24T11:17:50.389Z,1.30
2019-02-24T11:18:50.396Z,0.59
2019-02-24T11:19:50.411Z,0.57
2019-02-24T11:20:50.364Z,0.87
2019-02-24T11:21:50.393Z,0.20
2019-02-24T11:22:50.412Z,0.64
2019-02-24T11:23:50.429Z,0.35
2019-02-24T11:24:50.428Z,0.85
2019-02-24T11:25:50.435Z,1.17
2019-02-24T11:26:50.441Z,0.13
2019-02-24T11:27:50.442Z,0.12
2019-02-24T11:28:50.480Z,0.00
2019-02-24T11:29:50.466Z,0.00
2019-02-24T11:30:50.487Z,0.46
2019-02-24T11:31:50.482Z,0.83
2019-02-24T11:32:50.499Z,1.03
2019-02-24T11:33:50.508Z,0.97
2019-02-24T11:34:50.486Z,0.82
2019-02-24T11:35:50.768Z,0.74
2019-02-24T11:36:50.721Z,0.76
2019-02-24T11:37:50.764Z,1.40
2019-02-24T11:38:50.728Z,0.53
2019-02-24T11:39:50.730Z,0.54
2019-02-24T11:40:50.726Z,0.41
2019-02-24T11:41:50.783Z,0.10
2019-02-24T11:42:50.761Z,0.21
2019-02-24T11:43:50.769Z,0.50
2019-02-24T11:44:50.765Z,1.12
2019-02-24T11:45:50.784Z,1.50
2019-02-24T11:46:50.791Z,0.97
2019-02-24T11:47:50.803Z,0.45
2019-02-24T11:48:50.874Z,1.38
2019-02-24T11:49:50.801Z,0.67
2019-02-24T11:50:50.790Z,0.61
2019-02-24T11:51:50.861Z,0.09
2019-02-24T11:52:50.840Z,0.02
2019-02-24T11:53:50.861Z,0.54
2019-02-24T11:54:50.886Z,0.34
2019-02-24T11:55:50.839Z,0.13
2019-02-24T11:56:50.850Z,1.14
2019-02-24T11:57:50.887Z,0.63
2019-02-24T11:58:50.903Z,0.51
2019-02-24T11:59:50.960Z,0.38
2019-02-24T12:00:50.907Z,1.16
2019-02-24T12:01:50.918Z,1.30
2019-02-24T12:02:50.917Z,0.74
2019-02-24T12:03:50.902Z,0.38
2019-02-24T12:04:50.944Z,0.62
2019-02-24T12:05:50.940Z,1.64
2019-02-24T12:06:51.044Z,0.24
2019-02-24T12:07:50.990Z,0.14
2019-02-24T12:08:50.953Z,0.52
2019-02-24T12:09:50.978Z,1.45
2019-02-24T12:10:50.988Z,2.14
2019-02-24T12:11:50.977Z,1.33
2019-02-24T12:12:51.008Z,0.63
2019-02-24T12:13:50.989Z,0.13
2019-02-24T12:14:51.000Z,0.84
2019-02-24T12:15:51.001Z,1.09
2019-02-24T12:16:51.080Z,1.14
2019-02-24T12:17:51.047Z,0.72
2019-02-24T12:18:51.024Z,1.13
2019-02-24T12:19:51.049Z,0.33
2019-02-24T12:20:51.047Z,0.80
2019-02-24T12:21:51.047Z,0.61
2019-02-24T12:22:51.067Z,1.35
2019-02-24T12:23:51.064Z,1.98
2019-02-24T12:24:51.298Z,1.13
2019-02-24T12:25:51.307Z,0.33
2019-02-24T12:26:51.319Z,0.57
2019-02-24T12:27:51.300Z,0.17
2019-02-24T12:28:51.291Z,0.72
2019-02-24T12:29:51.320Z,0.96
2019-02-24T12:30:51.307Z,0.31
2019-02-24T12:31:56.510Z,0.32
2019-02-24T12:32:51.333Z,0.50
2019-02-24T12:33:51.498Z,0.39
2019-02-24T12:34:51.357Z,1.19
2019-02-24T12:35:51.405Z,1.27
2019-02-24T12:36:51.377Z,1.42
2019-02-24T12:37:51.135Z,0.82
2019-02-24T12:38:51.187Z,0.39
2019-02-24T12:39:51.205Z,1.26
2019-02-24T12:40:51.178Z,1.19
2019-02-24T12:41:51.219Z,0.98
2019-02-24T12:42:51.264Z,0.86
2019-02-24T12:43:51.401Z,0.01
2019-02-24T12:44:51.432Z,0.94
2019-02-24T12:45:51.207Z,0.59
2019-02-24T12:46:51.402Z,0.43
2019-02-24T12:47:51.221Z,0.69
2019-02-24T12:48:51.266Z,0.67
2019-02-24T12:49:51.551Z,1.19
2019-02-24T12:50:51.284Z,0.24
2019-02-24T12:51:51.274Z,1.39
2019-02-24T12:52:51.476Z,1.09
2019-02-24T12:53:51.316Z,0.79
2019-02-24T12:54:51.309Z,0.46
2019-02-24T12:55:51.306Z,1.19
2019-02-24T12:56:51.295Z,1.49
2019-02-24T12:57:51.308Z,1.31
2019-02-24T12:58:51.344Z,1.69
2019-02-24T12:59:51.328Z,1.80
2019-02-24T13:00:51.381Z,0.62
2019-02-24T13:01:51.328Z,0.03
2019-02-24T13:02:51.358Z,0.25
2019-02-24T13:03:51.348Z,1.30
2019-02-24T13:04:51.349Z,1.44
2019-02-24T13:05:51.370Z,0.85
2019-02-24T13:06:51.389Z,0.24
2019-02-24T13:07:51.189Z,0.00
2019-02-24T13:08:51.427Z,0.00
2019-02-24T13:09:51.408Z,0.15
2019-02-24T13:10:51.220Z,1.79
2019-02-24T13:11:51.262Z,1.51
2019-02-24T13:12:51.220Z,1.21
2019-02-24T13:13:51.237Z,1.28
2019-02-24T13:14:51.260Z,1.12
2019-02-24T13:15:51.221Z,0.78
2019-02-24T13:16:51.251Z,0.76
2019-02-24T13:17:51.275Z,0.45
2019-02-24T13:18:51.298Z,1.06